sensor_id;sensor_type;location;lat;lon;timestamp;P1;durP1;ratioP1;P2;durP2;ratioP2
23712;SDS011;12035;49.978;8.298;2022-07-29T00:04:00;4.68;;;1.10;;
23712;SDS011;12035;49.978;8.298;2022-07-29T00:08:57;3.97;;;1.45;;
23712;SDS011;12035;49.978;8.298;2022-07-29T00:13:55;5.22;;;1.40;;
23712;SDS011;12035;49.978;8.298;2022-07-29T00:18:53;5.80;;;1.60;;
23712;SDS011;12035;49.978;8.298;2022-07-29T00:23:50;5.53;;;1.35;;
23712;SDS011;12035;49.978;8.298;2022-07-29T00:28:47;3.28;;;0.90;;
23712;SDS011;12035;49.978;8.298;2022-07-29T00:33:45;3.72;;;1.10;;
23712;SDS011;12035;49.978;8.298;2022-07-29T00:38:43;3.03;;;0.95;;
23712;SDS011;12035;49.978;8.298;2022-07-29T00:43:41;1.63;;;1.10;;
23712;SDS011;12035;49.978;8.298;2022-07-29T00:48:38;2.38;;;1.10;;
23712;SDS011;12035;49.978;8.298;2022-07-29T00:53:36;5.10;;;1.50;;
23712;SDS011;12035;49.978;8.298;2022-07-29T00:58:34;9.20;;;1.70;;
23712;SDS011;12035;49.978;8.298;2022-07-29T01:03:31;5.70;;;1.85;;
23712;SDS011;12035;49.978;8.298;2022-07-29T01:08:28;6.90;;;1.83;;
23712;SDS011;12035;49.978;8.298;2022-07-29T01:13:29;7.55;;;1.60;;
23712;SDS011;12035;49.978;8.298;2022-07-29T01:18:28;6.30;;;1.63;;
23712;SDS011;12035;49.978;8.298;2022-07-29T01:23:39;9.40;;;2.45;;
23712;SDS011;12035;49.978;8.298;2022-07-29T01:28:58;6.30;;;2.03;;
23712;SDS011;12035;49.978;8.298;2022-07-29T01:34:01;5.10;;;1.65;;
23712;SDS011;12035;49.978;8.298;2022-07-29T01:39:05;6.38;;;1.50;;
23712;SDS011;12035;49.978;8.298;2022-07-29T01:44:11;4.57;;;1.40;;
23712;SDS011;12035;49.978;8.298;2022-07-29T01:49:14;2.60;;;1.38;;
23712;SDS011;12035;49.978;8.298;2022-07-29T01:54:16;2.75;;;1.40;;
23712;SDS011;12035;49.978;8.298;2022-07-29T01:59:18;3.72;;;1.77;;
23712;SDS011;12035;49.978;8.298;2022-07-29T02:04:16;3.15;;;1.75;;
23712;SDS011;12035;49.978;8.298;2022-07-29T02:09:15;3.25;;;1.70;;
23712;SDS011;12035;49.978;8.298;2022-07-29T02:14:13;3.05;;;1.50;;
23712;SDS011;12035;49.978;8.298;2022-07-29T02:19:15;5.22;;;1.65;;
23712;SDS011;12035;49.978;8.298;2022-07-29T02:24:15;3.53;;;1.50;;
23712;SDS011;12035;49.978;8.298;2022-07-29T02:29:13;4.70;;;1.73;;
23712;SDS011;12035;49.978;8.298;2022-07-29T02:34:14;3.83;;;1.70;;
23712;SDS011;12035;49.978;8.298;2022-07-29T02:39:13;4.15;;;1.63;;
23712;SDS011;12035;49.978;8.298;2022-07-29T02:44:13;7.38;;;1.70;;
23712;SDS011;12035;49.978;8.298;2022-07-29T02:49:15;5.00;;;1.50;;
23712;SDS011;12035;49.978;8.298;2022-07-29T02:54:20;4.10;;;1.55;;
23712;SDS011;12035;49.978;8.298;2022-07-29T02:59:27;7.03;;;1.90;;
23712;SDS011;12035;49.978;8.298;2022-07-29T03:04:32;4.57;;;2.05;;
23712;SDS011;12035;49.978;8.298;2022-07-29T03:09:30;6.40;;;2.05;;
23712;SDS011;12035;49.978;8.298;2022-07-29T03:14:29;4.88;;;2.08;;
23712;SDS011;12035;49.978;8.298;2022-07-29T03:19:27;6.20;;;1.73;;
23712;SDS011;12035;49.978;8.298;2022-07-29T03:24:30;3.33;;;1.50;;
23712;SDS011;12035;49.978;8.298;2022-07-29T03:29:29;4.13;;;1.52;;
23712;SDS011;12035;49.978;8.298;2022-07-29T03:34:26;3.45;;;1.60;;
23712;SDS011;12035;49.978;8.298;2022-07-29T03:39:24;4.13;;;1.80;;
23712;SDS011;12035;49.978;8.298;2022-07-29T03:44:27;2.90;;;1.70;;
23712;SDS011;12035;49.978;8.298;2022-07-29T03:49:25;3.55;;;1.30;;
23712;SDS011;12035;49.978;8.298;2022-07-29T03:54:23;2.92;;;1.52;;
23712;SDS011;12035;49.978;8.298;2022-07-29T03:59:22;3.92;;;1.50;;
23712;SDS011;12035;49.978;8.298;2022-07-29T04:04:20;3.85;;;1.75;;
23712;SDS011;12035;49.978;8.298;2022-07-29T04:09:17;3.05;;;1.50;;
23712;SDS011;12035;49.978;8.298;2022-07-29T04:14:14;4.22;;;1.73;;
23712;SDS011;12035;49.978;8.298;2022-07-29T04:19:13;2.38;;;1.30;;
23712;SDS011;12035;49.978;8.298;2022-07-29T04:24:10;3.78;;;1.23;;
23712;SDS011;12035;49.978;8.298;2022-07-29T04:29:07;5.43;;;1.65;;
23712;SDS011;12035;49.978;8.298;2022-07-29T04:34:06;2.47;;;0.98;;
23712;SDS011;12035;49.978;8.298;2022-07-29T04:39:06;2.65;;;1.50;;
23712;SDS011;12035;49.978;8.298;2022-07-29T04:44:03;3.17;;;1.45;;
23712;SDS011;12035;49.978;8.298;2022-07-29T04:49:01;4.15;;;1.55;;
23712;SDS011;12035;49.978;8.298;2022-07-29T04:53:58;2.88;;;1.65;;
23712;SDS011;12035;49.978;8.298;2022-07-29T04:58:57;3.45;;;1.70;;
23712;SDS011;12035;49.978;8.298;2022-07-29T05:03:54;4.07;;;1.77;;
23712;SDS011;12035;49.978;8.298;2022-07-29T05:08:51;2.60;;;1.80;;
23712;SDS011;12035;49.978;8.298;2022-07-29T05:13:48;4.15;;;1.88;;
23712;SDS011;12035;49.978;8.298;2022-07-29T05:18:47;5.78;;;1.63;;
23712;SDS011;12035;49.978;8.298;2022-07-29T05:23:44;5.03;;;1.65;;
23712;SDS011;12035;49.978;8.298;2022-07-29T05:28:41;3.10;;;1.98;;
23712;SDS011;12035;49.978;8.298;2022-07-29T05:33:38;3.45;;;1.90;;
23712;SDS011;12035;49.978;8.298;2022-07-29T05:38:36;6.05;;;2.00;;
23712;SDS011;12035;49.978;8.298;2022-07-29T05:43:34;8.50;;;1.60;;
23712;SDS011;12035;49.978;8.298;2022-07-29T05:48:31;5.03;;;1.98;;
23712;SDS011;12035;49.978;8.298;2022-07-29T05:53:28;4.43;;;2.10;;
23712;SDS011;12035;49.978;8.298;2022-07-29T05:58:26;4.80;;;1.98;;
23712;SDS011;12035;49.978;8.298;2022-07-29T06:03:24;3.67;;;1.67;;
23712;SDS011;12035;49.978;8.298;2022-07-29T06:08:21;6.20;;;2.30;;
23712;SDS011;12035;49.978;8.298;2022-07-29T06:13:19;3.50;;;1.75;;
23712;SDS011;12035;49.978;8.298;2022-07-29T06:18:17;3.75;;;1.83;;
23712;SDS011;12035;49.978;8.298;2022-07-29T06:23:15;4.53;;;1.88;;
23712;SDS011;12035;49.978;8.298;2022-07-29T06:28:16;5.00;;;2.10;;
23712;SDS011;12035;49.978;8.298;2022-07-29T06:33:17;3.80;;;1.70;;
23712;SDS011;12035;49.978;8.298;2022-07-29T06:38:15;5.03;;;2.13;;
23712;SDS011;12035;49.978;8.298;2022-07-29T06:43:12;3.38;;;1.48;;
23712;SDS011;12035;49.978;8.298;2022-07-29T06:48:09;3.13;;;1.75;;
23712;SDS011;12035;49.978;8.298;2022-07-29T06:53:08;5.72;;;1.77;;
23712;SDS011;12035;49.978;8.298;2022-07-29T06:58:05;4.85;;;1.75;;
23712;SDS011;12035;49.978;8.298;2022-07-29T07:03:02;4.05;;;2.00;;
23712;SDS011;12035;49.978;8.298;2022-07-29T07:08:00;4.88;;;1.90;;
23712;SDS011;12035;49.978;8.298;2022-07-29T07:12:59;5.45;;;1.70;;
23712;SDS011;12035;49.978;8.298;2022-07-29T07:17:56;5.32;;;2.15;;
23712;SDS011;12035;49.978;8.298;2022-07-29T07:22:53;4.50;;;1.88;;
23712;SDS011;12035;49.978;8.298;2022-07-29T07:27:51;5.13;;;1.80;;
23712;SDS011;12035;49.978;8.298;2022-07-29T07:32:49;4.13;;;2.17;;
23712;SDS011;12035;49.978;8.298;2022-07-29T07:37:46;4.00;;;1.80;;
23712;SDS011;12035;49.978;8.298;2022-07-29T07:42:44;3.30;;;1.83;;
23712;SDS011;12035;49.978;8.298;2022-07-29T07:47:41;6.05;;;1.90;;
23712;SDS011;12035;49.978;8.298;2022-07-29T07:52:46;7.65;;;2.30;;
23712;SDS011;12035;49.978;8.298;2022-07-29T07:57:45;5.88;;;1.80;;
23712;SDS011;12035;49.978;8.298;2022-07-29T08:02:43;7.63;;;1.98;;
23712;SDS011;12035;49.978;8.298;2022-07-29T08:07:41;5.38;;;1.90;;
23712;SDS011;12035;49.978;8.298;2022-07-29T08:12:40;4.55;;;1.80;;
23712;SDS011;12035;49.978;8.298;2022-07-29T08:17:37;3.92;;;2.00;;
23712;SDS011;12035;49.978;8.298;2022-07-29T08:22:34;3.15;;;1.80;;
23712;SDS011;12035;49.978;8.298;2022-07-29T08:27:31;5.32;;;1.67;;
23712;SDS011;12035;49.978;8.298;2022-07-29T08:32:29;6.68;;;1.80;;
23712;SDS011;12035;49.978;8.298;2022-07-29T08:37:26;9.55;;;1.98;;
23712;SDS011;12035;49.978;8.298;2022-07-29T08:42:23;4.38;;;1.80;;
23712;SDS011;12035;49.978;8.298;2022-07-29T08:47:21;4.35;;;1.65;;
23712;SDS011;12035;49.978;8.298;2022-07-29T08:52:22;2.92;;;1.70;;
23712;SDS011;12035;49.978;8.298;2022-07-29T08:57:22;4.32;;;1.98;;
23712;SDS011;12035;49.978;8.298;2022-07-29T09:02:21;4.35;;;1.75;;
23712;SDS011;12035;49.978;8.298;2022-07-29T09:07:19;5.63;;;2.28;;
23712;SDS011;12035;49.978;8.298;2022-07-29T09:12:18;8.57;;;1.55;;
23712;SDS011;12035;49.978;8.298;2022-07-29T09:17:17;2.40;;;1.60;;
23712;SDS011;12035;49.978;8.298;2022-07-29T09:22:28;4.75;;;1.90;;
23712;SDS011;12035;49.978;8.298;2022-07-29T09:27:29;3.80;;;1.85;;
23712;SDS011;12035;49.978;8.298;2022-07-29T09:32:26;4.55;;;1.67;;
23712;SDS011;12035;49.978;8.298;2022-07-29T09:37:27;4.50;;;1.65;;
23712;SDS011;12035;49.978;8.298;2022-07-29T09:42:27;8.32;;;1.83;;
23712;SDS011;12035;49.978;8.298;2022-07-29T09:47:41;6.55;;;2.10;;
23712;SDS011;12035;49.978;8.298;2022-07-29T09:52:44;4.40;;;2.00;;
23712;SDS011;12035;49.978;8.298;2022-07-29T09:57:46;4.50;;;1.65;;
23712;SDS011;12035;49.978;8.298;2022-07-29T10:02:45;5.18;;;2.05;;
23712;SDS011;12035;49.978;8.298;2022-07-29T10:07:43;5.15;;;1.77;;
23712;SDS011;12035;49.978;8.298;2022-07-29T10:12:50;4.72;;;1.60;;
23712;SDS011;12035;49.978;8.298;2022-07-29T10:17:50;4.95;;;2.15;;
23712;SDS011;12035;49.978;8.298;2022-07-29T10:22:48;5.97;;;1.67;;
23712;SDS011;12035;49.978;8.298;2022-07-29T10:27:47;3.08;;;1.70;;
23712;SDS011;12035;49.978;8.298;2022-07-29T10:32:51;5.38;;;1.77;;
23712;SDS011;12035;49.978;8.298;2022-07-29T10:38:18;3.88;;;1.60;;
23712;SDS011;12035;49.978;8.298;2022-07-29T10:43:33;3.28;;;1.73;;
23712;SDS011;12035;49.978;8.298;2022-07-29T10:48:34;6.43;;;1.88;;
23712;SDS011;12035;49.978;8.298;2022-07-29T10:53:46;4.72;;;1.75;;
23712;SDS011;12035;49.978;8.298;2022-07-29T10:58:47;5.45;;;1.90;;
23712;SDS011;12035;49.978;8.298;2022-07-29T11:15:21;4.75;;;1.73;;
23712;SDS011;12035;49.978;8.298;2022-07-29T11:20:31;5.30;;;1.83;;
23712;SDS011;12035;49.978;8.298;2022-07-29T11:25:30;6.32;;;1.85;;
23712;SDS011;12035;49.978;8.298;2022-07-29T11:41:19;4.45;;;1.77;;
23712;SDS011;12035;49.978;8.298;2022-07-29T11:51:41;3.55;;;2.15;;
23712;SDS011;12035;49.978;8.298;2022-07-29T11:56:39;4.05;;;1.80;;
23712;SDS011;12035;49.978;8.298;2022-07-29T12:01:55;3.15;;;1.80;;
23712;SDS011;12035;49.978;8.298;2022-07-29T12:06:58;3.47;;;1.80;;
23712;SDS011;12035;49.978;8.298;2022-07-29T12:11:56;5.68;;;1.88;;
23712;SDS011;12035;49.978;8.298;2022-07-29T12:16:56;4.07;;;1.88;;
23712;SDS011;12035;49.978;8.298;2022-07-29T12:21:55;3.55;;;1.80;;
23712;SDS011;12035;49.978;8.298;2022-07-29T12:26:53;5.57;;;1.85;;
23712;SDS011;12035;49.978;8.298;2022-07-29T12:31:53;3.35;;;2.00;;
23712;SDS011;12035;49.978;8.298;2022-07-29T12:36:54;7.80;;;2.00;;
23712;SDS011;12035;49.978;8.298;2022-07-29T12:41:51;5.60;;;1.67;;
23712;SDS011;12035;49.978;8.298;2022-07-29T12:47:02;2.72;;;1.60;;
23712;SDS011;12035;49.978;8.298;2022-07-29T12:51:59;4.03;;;1.70;;
23712;SDS011;12035;49.978;8.298;2022-07-29T12:56:58;2.60;;;1.63;;
23712;SDS011;12035;49.978;8.298;2022-07-29T13:01:55;6.03;;;1.80;;
23712;SDS011;12035;49.978;8.298;2022-07-29T13:06:59;2.22;;;1.60;;
23712;SDS011;12035;49.978;8.298;2022-07-29T13:11:58;3.90;;;2.08;;
23712;SDS011;12035;49.978;8.298;2022-07-29T13:17:05;3.95;;;1.88;;
23712;SDS011;12035;49.978;8.298;2022-07-29T13:22:05;4.03;;;1.90;;
23712;SDS011;12035;49.978;8.298;2022-07-29T13:27:03;3.00;;;1.70;;
23712;SDS011;12035;49.978;8.298;2022-07-29T13:32:00;2.85;;;1.70;;
23712;SDS011;12035;49.978;8.298;2022-07-29T13:36:57;2.85;;;1.88;;
23712;SDS011;12035;49.978;8.298;2022-07-29T13:41:55;4.28;;;2.20;;
23712;SDS011;12035;49.978;8.298;2022-07-29T13:46:52;4.78;;;1.88;;
23712;SDS011;12035;49.978;8.298;2022-07-29T13:51:50;4.60;;;1.77;;
23712;SDS011;12035;49.978;8.298;2022-07-29T13:56:47;4.40;;;1.85;;
23712;SDS011;12035;49.978;8.298;2022-07-29T14:01:47;4.35;;;1.73;;
23712;SDS011;12035;49.978;8.298;2022-07-29T14:06:44;2.92;;;1.92;;
23712;SDS011;12035;49.978;8.298;2022-07-29T14:11:41;3.30;;;1.70;;
23712;SDS011;12035;49.978;8.298;2022-07-29T14:16:38;3.30;;;1.77;;
23712;SDS011;12035;49.978;8.298;2022-07-29T14:21:37;3.10;;;1.65;;
23712;SDS011;12035;49.978;8.298;2022-07-29T14:26:34;2.97;;;1.88;;
23712;SDS011;12035;49.978;8.298;2022-07-29T14:31:31;3.90;;;2.08;;
23712;SDS011;12035;49.978;8.298;2022-07-29T14:36:28;4.35;;;1.80;;
23712;SDS011;12035;49.978;8.298;2022-07-29T14:41:27;4.30;;;1.80;;
23712;SDS011;12035;49.978;8.298;2022-07-29T14:46:24;3.17;;;1.90;;
23712;SDS011;12035;49.978;8.298;2022-07-29T14:51:21;4.53;;;2.00;;
23712;SDS011;12035;49.978;8.298;2022-07-29T14:56:18;4.32;;;1.90;;
23712;SDS011;12035;49.978;8.298;2022-07-29T15:01:17;4.55;;;1.88;;
23712;SDS011;12035;49.978;8.298;2022-07-29T15:06:14;4.65;;;2.10;;
23712;SDS011;12035;49.978;8.298;2022-07-29T15:11:11;2.67;;;1.63;;
23712;SDS011;12035;49.978;8.298;2022-07-29T15:16:08;3.67;;;1.90;;
23712;SDS011;12035;49.978;8.298;2022-07-29T15:21:06;3.65;;;2.25;;
23712;SDS011;12035;49.978;8.298;2022-07-29T15:26:03;5.88;;;2.25;;
23712;SDS011;12035;49.978;8.298;2022-07-29T15:31:01;4.03;;;2.45;;
23712;SDS011;12035;49.978;8.298;2022-07-29T15:35:57;3.22;;;1.63;;
23712;SDS011;12035;49.978;8.298;2022-07-29T15:40:56;3.72;;;1.80;;
23712;SDS011;12035;49.978;8.298;2022-07-29T15:45:54;2.95;;;1.70;;
23712;SDS011;12035;49.978;8.298;2022-07-29T15:51:08;2.75;;;1.70;;
23712;SDS011;12035;49.978;8.298;2022-07-29T15:56:06;2.35;;;1.48;;
23712;SDS011;12035;49.978;8.298;2022-07-29T16:01:03;3.83;;;1.77;;
23712;SDS011;12035;49.978;8.298;2022-07-29T16:06:00;4.50;;;1.80;;
23712;SDS011;12035;49.978;8.298;2022-07-29T16:10:57;2.13;;;1.27;;
23712;SDS011;12035;49.978;8.298;2022-07-29T16:15:56;2.95;;;1.45;;
23712;SDS011;12035;49.978;8.298;2022-07-29T16:20:53;2.30;;;1.40;;
23712;SDS011;12035;49.978;8.298;2022-07-29T16:25:50;4.70;;;1.50;;
23712;SDS011;12035;49.978;8.298;2022-07-29T16:30:47;2.40;;;1.40;;
23712;SDS011;12035;49.978;8.298;2022-07-29T16:35:46;2.30;;;1.27;;
23712;SDS011;12035;49.978;8.298;2022-07-29T16:40:43;2.38;;;1.13;;
23712;SDS011;12035;49.978;8.298;2022-07-29T16:45:41;3.60;;;1.60;;
23712;SDS011;12035;49.978;8.298;2022-07-29T16:50:38;5.30;;;2.00;;
23712;SDS011;12035;49.978;8.298;2022-07-29T16:55:36;3.80;;;1.85;;
23712;SDS011;12035;49.978;8.298;2022-07-29T17:00:33;3.17;;;1.58;;
23712;SDS011;12035;49.978;8.298;2022-07-29T17:05:31;4.85;;;2.25;;
23712;SDS011;12035;49.978;8.298;2022-07-29T17:10:28;5.75;;;3.95;;
23712;SDS011;12035;49.978;8.298;2022-07-29T17:15:27;4.22;;;2.30;;
23712;SDS011;12035;49.978;8.298;2022-07-29T17:20:24;8.70;;;2.83;;
23712;SDS011;12035;49.978;8.298;2022-07-29T17:25:21;8.35;;;2.75;;
23712;SDS011;12035;49.978;8.298;2022-07-29T17:30:19;5.63;;;2.63;;
23712;SDS011;12035;49.978;8.298;2022-07-29T17:35:17;5.30;;;2.25;;
23712;SDS011;12035;49.978;8.298;2022-07-29T17:40:32;4.67;;;2.37;;
23712;SDS011;12035;49.978;8.298;2022-07-29T17:45:29;4.93;;;2.70;;
23712;SDS011;12035;49.978;8.298;2022-07-29T17:50:27;4.55;;;2.35;;
23712;SDS011;12035;49.978;8.298;2022-07-29T17:55:24;3.50;;;2.00;;
23712;SDS011;12035;49.978;8.298;2022-07-29T18:00:21;6.28;;;3.00;;
23712;SDS011;12035;49.978;8.298;2022-07-29T18:05:18;5.30;;;3.13;;
23712;SDS011;12035;49.978;8.298;2022-07-29T18:10:17;5.68;;;3.10;;
23712;SDS011;12035;49.978;8.298;2022-07-29T18:15:14;6.22;;;3.15;;
23712;SDS011;12035;49.978;8.298;2022-07-29T18:20:11;7.57;;;2.97;;
23712;SDS011;12035;49.978;8.298;2022-07-29T18:25:08;5.00;;;2.55;;
23712;SDS011;12035;49.978;8.298;2022-07-29T18:30:07;7.35;;;2.83;;
23712;SDS011;12035;49.978;8.298;2022-07-29T18:35:05;6.32;;;2.90;;
23712;SDS011;12035;49.978;8.298;2022-07-29T18:40:03;4.88;;;2.65;;
23712;SDS011;12035;49.978;8.298;2022-07-29T18:45:02;4.60;;;2.55;;
23712;SDS011;12035;49.978;8.298;2022-07-29T18:50:01;4.65;;;2.60;;
23712;SDS011;12035;49.978;8.298;2022-07-29T18:54:58;4.32;;;2.40;;
23712;SDS011;12035;49.978;8.298;2022-07-29T18:59:56;6.47;;;2.50;;
23712;SDS011;12035;49.978;8.298;2022-07-29T19:04:53;6.97;;;2.80;;
23712;SDS011;12035;49.978;8.298;2022-07-29T19:09:52;6.68;;;2.95;;
23712;SDS011;12035;49.978;8.298;2022-07-29T19:14:49;4.05;;;2.35;;
23712;SDS011;12035;49.978;8.298;2022-07-29T19:19:46;3.85;;;2.30;;
23712;SDS011;12035;49.978;8.298;2022-07-29T19:24:47;5.95;;;2.90;;
23712;SDS011;12035;49.978;8.298;2022-07-29T19:29:46;6.18;;;2.70;;
23712;SDS011;12035;49.978;8.298;2022-07-29T19:34:43;5.88;;;2.65;;
23712;SDS011;12035;49.978;8.298;2022-07-29T19:40:00;3.97;;;2.90;;
23712;SDS011;12035;49.978;8.298;2022-07-29T19:44:58;5.20;;;2.97;;
23712;SDS011;12035;49.978;8.298;2022-07-29T19:49:55;4.75;;;2.50;;
23712;SDS011;12035;49.978;8.298;2022-07-29T19:54:54;7.05;;;3.15;;
23712;SDS011;12035;49.978;8.298;2022-07-29T19:59:51;4.45;;;2.75;;
23712;SDS011;12035;49.978;8.298;2022-07-29T20:04:50;4.85;;;2.97;;
23712;SDS011;12035;49.978;8.298;2022-07-29T20:09:47;6.80;;;3.13;;
23712;SDS011;12035;49.978;8.298;2022-07-29T20:14:44;5.57;;;3.13;;
23712;SDS011;12035;49.978;8.298;2022-07-29T20:19:41;7.22;;;3.47;;
23712;SDS011;12035;49.978;8.298;2022-07-29T20:24:40;6.45;;;3.75;;
23712;SDS011;12035;49.978;8.298;2022-07-29T20:29:37;5.10;;;3.50;;
23712;SDS011;12035;49.978;8.298;2022-07-29T20:34:35;4.32;;;3.05;;
23712;SDS011;12035;49.978;8.298;2022-07-29T20:39:32;5.00;;;3.05;;
23712;SDS011;12035;49.978;8.298;2022-07-29T20:44:30;6.55;;;3.75;;
23712;SDS011;12035;49.978;8.298;2022-07-29T20:49:28;5.68;;;3.08;;
23712;SDS011;12035;49.978;8.298;2022-07-29T20:54:25;4.20;;;2.83;;
23712;SDS011;12035;49.978;8.298;2022-07-29T20:59:22;7.20;;;3.72;;
23712;SDS011;12035;49.978;8.298;2022-07-29T21:04:20;8.25;;;3.38;;
23712;SDS011;12035;49.978;8.298;2022-07-29T21:09:17;6.88;;;3.65;;
23712;SDS011;12035;49.978;8.298;2022-07-29T21:14:15;8.23;;;4.10;;
23712;SDS011;12035;49.978;8.298;2022-07-29T21:19:24;10.50;;;3.80;;
23712;SDS011;12035;49.978;8.298;2022-07-29T21:24:21;6.00;;;3.28;;
23712;SDS011;12035;49.978;8.298;2022-07-29T21:29:19;7.10;;;3.10;;
23712;SDS011;12035;49.978;8.298;2022-07-29T21:34:16;5.53;;;3.22;;
23712;SDS011;12035;49.978;8.298;2022-07-29T21:39:14;7.43;;;4.15;;
23712;SDS011;12035;49.978;8.298;2022-07-29T21:44:11;5.05;;;3.03;;
23712;SDS011;12035;49.978;8.298;2022-07-29T21:49:08;5.57;;;3.53;;
23712;SDS011;12035;49.978;8.298;2022-07-29T21:54:05;5.95;;;2.60;;
23712;SDS011;12035;49.978;8.298;2022-07-29T21:59:04;6.38;;;3.35;;
23712;SDS011;12035;49.978;8.298;2022-07-29T22:04:01;5.57;;;2.85;;
23712;SDS011;12035;49.978;8.298;2022-07-29T22:08:58;4.53;;;2.83;;
23712;SDS011;12035;49.978;8.298;2022-07-29T22:13:56;5.03;;;2.90;;
23712;SDS011;12035;49.978;8.298;2022-07-29T22:18:54;5.57;;;3.72;;
23712;SDS011;12035;49.978;8.298;2022-07-29T22:23:51;6.07;;;3.22;;
23712;SDS011;12035;49.978;8.298;2022-07-29T22:28:48;4.57;;;2.80;;
23712;SDS011;12035;49.978;8.298;2022-07-29T22:33:48;5.05;;;2.88;;
23712;SDS011;12035;49.978;8.298;2022-07-29T22:38:47;4.80;;;2.58;;
23712;SDS011;12035;49.978;8.298;2022-07-29T22:43:44;6.47;;;2.58;;
23712;SDS011;12035;49.978;8.298;2022-07-29T22:48:41;4.20;;;2.10;;
23712;SDS011;12035;49.978;8.298;2022-07-29T22:53:38;6.13;;;2.30;;
23712;SDS011;12035;49.978;8.298;2022-07-29T22:58:36;3.53;;;2.28;;
23712;SDS011;12035;49.978;8.298;2022-07-29T23:03:34;11.15;;;2.65;;
23712;SDS011;12035;49.978;8.298;2022-07-29T23:08:31;4.85;;;2.58;;
23712;SDS011;12035;49.978;8.298;2022-07-29T23:13:28;5.03;;;2.53;;
23712;SDS011;12035;49.978;8.298;2022-07-29T23:18:26;3.78;;;1.83;;
23712;SDS011;12035;49.978;8.298;2022-07-29T23:23:23;5.40;;;2.50;;
23712;SDS011;12035;49.978;8.298;2022-07-29T23:28:20;3.75;;;2.10;;
23712;SDS011;12035;49.978;8.298;2022-07-29T23:33:17;3.38;;;2.00;;
23712;SDS011;12035;49.978;8.298;2022-07-29T23:38:16;3.35;;;1.92;;
23712;SDS011;12035;49.978;8.298;2022-07-29T23:43:13;4.88;;;2.10;;
23712;SDS011;12035;49.978;8.298;2022-07-29T23:48:10;4.63;;;2.95;;
23712;SDS011;12035;49.978;8.298;2022-07-29T23:53:08;4.95;;;2.60;;
23712;SDS011;12035;49.978;8.298;2022-07-29T23:58:07;4.18;;;2.55;;
